Time;durP1;ratioP1;P1;durP2;ratioP2;P2;SDS_P1;SDS_P2;PMS_P1;PMS_P2;Temp;Humidity;BMP_temperature;BMP_pressure;BME280_temperature;BME280_humidity;BME280_pressure;Samples;Min_cycle;Max_cycle;Signal;HPM_P1;HPM_P2
2022/07/27 00:02:17;;;;;;;6.30;0.85;;;14.10;99.90;;;;;;5029386;28;20491;-75
2022/07/27 00:04:43;;;;;;;4.13;0.57;;;14.10;99.90;;;;;;5040702;28;20049;-74
2022/07/27 00:07:08;;;;;;;3.58;0.80;;;14.10;99.90;;;;;;5017643;28;20049;-74
2022/07/27 00:09:34;;;;;;;5.03;0.80;;;14.10;99.90;;;;;;5031309;28;20060;-74
2022/07/27 00:12:00;;;;;;;4.00;0.60;;;14.00;99.90;;;;;;5033763;28;20088;-74
2022/07/27 00:14:26;;;;;;;3.65;0.70;;;14.00;99.90;;;;;;5034936;28;20091;-74
2022/07/27 00:16:51;;;;;;;2.30;0.73;;;14.00;99.90;;;;;;5022544;28;20559;-74
2022/07/27 00:19:17;;;;;;;5.43;0.90;;;14.00;99.90;;;;;;5044791;28;20130;-74
2022/07/27 00:21:43;;;;;;;3.97;0.90;;;13.90;99.90;;;;;;5045311;28;20069;-74
2022/07/27 00:24:08;;;;;;;6.82;1.00;;;13.90;99.90;;;;;;5032450;28;20049;-74
2022/07/27 00:26:34;;;;;;;4.93;1.00;;;13.80;99.90;;;;;;5020510;28;20131;-75
2022/07/27 00:28:59;;;;;;;5.30;0.80;;;13.80;99.90;;;;;;5046424;28;20052;-73
2022/07/27 00:31:25;;;;;;;4.53;1.25;;;13.70;99.90;;;;;;5048614;28;20041;-74
2022/07/27 00:33:51;;;;;;;4.75;1.05;;;13.60;99.90;;;;;;5037533;28;20136;-74
2022/07/27 00:36:17;;;;;;;4.70;1.05;;;13.50;99.90;;;;;;5019068;28;20488;-75
2022/07/27 00:38:42;;;;;;;3.30;0.93;;;13.50;99.90;;;;;;5036095;28;20397;-74
2022/07/27 00:41:08;;;;;;;3.75;1.10;;;13.40;99.90;;;;;;5050288;28;20433;-74
2022/07/27 00:43:49;;;;;;;4.60;1.45;;;13.40;99.90;;;;;;5038246;28;20056;-75
2022/07/27 00:46:14;;;;;;;5.50;1.08;;;13.30;99.90;;;;;;5038152;28;20300;-74
2022/07/27 00:48:40;;;;;;;5.13;1.65;;;13.30;99.90;;;;;;5041482;28;20041;-76
2022/07/27 00:51:06;;;;;;;6.45;1.30;;;13.30;99.90;;;;;;5042983;28;20042;-75
2022/07/27 00:53:32;;;;;;;7.63;1.40;;;13.30;99.90;;;;;;5048235;28;20392;-74
2022/07/27 00:55:58;;;;;;;9.77;1.70;;;13.30;99.90;;;;;;5048483;28;20052;-74
2022/07/27 00:58:25;;;;;;;4.15;1.13;;;13.40;99.90;;;;;;5022709;28;20046;-74
2022/07/27 01:00:51;;;;;;;6.40;1.25;;;13.40;99.90;;;;;;5029961;28;20052;-74
2022/07/27 01:03:17;;;;;;;5.68;1.02;;;13.50;99.90;;;;;;5043954;28;20423;-74
2022/07/27 01:05:42;;;;;;;5.80;1.10;;;13.50;99.90;;;;;;5046968;28;20056;-74
2022/07/27 01:08:10;;;;;;;4.03;1.20;;;13.50;99.90;;;;;;5022945;28;20045;-74
2022/07/27 01:10:37;;;;;;;5.03;0.98;;;13.50;99.90;;;;;;5039306;28;20600;-74
2022/07/27 01:13:03;;;;;;;7.57;1.23;;;13.60;99.90;;;;;;5038310;28;20048;-74
2022/07/27 01:15:30;;;;;;;4.68;1.25;;;13.60;99.90;;;;;;5044357;28;20132;-75
2022/07/27 01:17:56;;;;;;;5.97;1.20;;;13.70;99.90;;;;;;5029871;28;20045;-74
2022/07/27 01:20:22;;;;;;;13.80;1.45;;;13.70;99.90;;;;;;5052497;28;20053;-74
2022/07/27 01:22:47;;;;;;;7.82;1.27;;;13.70;99.90;;;;;;5041199;28;20038;-74
2022/07/27 01:25:13;;;;;;;8.70;1.33;;;13.70;99.90;;;;;;5036865;28;20160;-74
2022/07/27 01:27:39;;;;;;;9.82;1.10;;;13.80;99.90;;;;;;5017783;28;20079;-74
2022/07/27 01:30:25;;;;;;;5.25;0.88;;;13.80;99.90;;;;;;5040476;28;20063;-74
2022/07/27 01:33:01;;;;;;;5.22;1.13;;;13.80;99.90;;;;;;5052872;28;20045;-75
2022/07/27 01:35:28;;;;;;;6.15;0.93;;;13.80;99.90;;;;;;5042762;28;20049;-74
2022/07/27 01:37:54;;;;;;;7.72;1.00;;;13.80;99.90;;;;;;5023353;28;20091;-74
2022/07/27 01:40:20;;;;;;;9.95;1.30;;;13.80;99.90;;;;;;5051549;28;20102;-74
2022/07/27 01:42:46;;;;;;;4.97;1.10;;;13.80;99.90;;;;;;5046963;28;20033;-74
2022/07/27 01:45:11;;;;;;;8.48;1.33;;;13.70;99.90;;;;;;5040198;28;20045;-74
2022/07/27 01:47:37;;;;;;;7.22;1.40;;;13.60;99.90;;;;;;5020897;28;20128;-74
2022/07/27 01:50:03;;;;;;;3.97;1.00;;;13.60;99.90;;;;;;5032001;28;20128;-74
2022/07/27 01:52:29;;;;;;;7.57;1.40;;;13.50;99.90;;;;;;5047262;28;20049;-74
2022/07/27 01:54:55;;;;;;;9.07;1.48;;;13.50;99.90;;;;;;5044624;28;20041;-74
2022/07/27 01:57:20;;;;;;;6.95;1.40;;;13.50;99.90;;;;;;5015688;28;20053;-74
2022/07/27 01:59:46;;;;;;;7.00;1.23;;;13.30;99.90;;;;;;5040855;28;20130;-75
2022/07/27 02:02:14;;;;;;;6.28;1.50;;;13.30;99.90;;;;;;5036094;28;20099;-74
2022/07/27 02:04:41;;;;;;;6.07;1.35;;;13.30;99.90;;;;;;5042537;28;20084;-75
2022/07/27 02:07:06;;;;;;;6.70;1.67;;;13.20;99.90;;;;;;5031638;28;20049;-74
2022/07/27 02:09:32;;;;;;;5.50;1.50;;;13.20;99.90;;;;;;5051369;28;20064;-75
2022/07/27 02:14:42;;;;;;;5.57;1.65;;;13.20;99.90;;;;;;5036990;28;20511;-74
2022/07/27 02:17:07;;;;;;;8.63;1.70;;;13.20;99.90;;;;;;5018947;28;20042;-74
2022/07/27 02:19:33;;;;;;;7.95;1.42;;;13.20;99.90;;;;;;5032490;28;20049;-74
2022/07/27 02:21:58;;;;;;;5.53;1.50;;;13.20;99.90;;;;;;5034608;28;20128;-75
2022/07/27 02:24:24;;;;;;;9.10;1.80;;;13.20;99.90;;;;;;5031646;28;20048;-75
2022/07/27 02:26:50;;;;;;;7.88;1.83;;;13.10;99.90;;;;;;5021673;28;20175;-75
2022/07/27 02:29:15;;;;;;;5.97;1.88;;;13.10;99.90;;;;;;5051479;28;20053;-75
2022/07/27 02:31:41;;;;;;;4.13;1.27;;;13.10;99.90;;;;;;5050974;28;20045;-75
2022/07/27 02:34:07;;;;;;;10.25;1.90;;;13.10;99.90;;;;;;5067180;28;20045;-75
2022/07/27 02:36:32;;;;;;;6.18;1.85;;;13.10;99.90;;;;;;5027672;28;20069;-75
2022/07/27 02:38:58;;;;;;;8.07;1.58;;;13.10;99.90;;;;;;5029385;28;20050;-75
2022/07/27 02:41:24;;;;;;;8.38;1.50;;;13.20;99.90;;;;;;5030855;28;20053;-75
2022/07/27 02:43:50;;;;;;;8.65;1.77;;;13.10;99.90;;;;;;5044609;28;20041;-75
2022/07/27 02:46:16;;;;;;;7.88;1.70;;;13.20;99.90;;;;;;5058208;28;20048;-75
2022/07/27 02:48:41;;;;;;;8.77;1.52;;;13.20;99.90;;;;;;5045252;28;20041;-75
2022/07/27 02:51:07;;;;;;;7.28;1.63;;;13.30;99.90;;;;;;5052225;28;20045;-75
2022/07/27 02:53:33;;;;;;;8.13;1.42;;;13.30;99.90;;;;;;5049846;28;20049;-74
2022/07/27 02:55:58;;;;;;;9.38;1.55;;;13.30;99.90;;;;;;5050423;28;20049;-74
2022/07/27 02:58:24;;;;;;;3.72;1.25;;;13.30;99.90;;;;;;5007029;28;20049;-74
2022/07/27 03:00:49;;;;;;;10.13;1.80;;;13.40;99.90;;;;;;5044919;28;20111;-74
2022/07/27 03:03:15;;;;;;;6.00;1.40;;;13.40;99.90;;;;;;5039240;28;20049;-74
2022/07/27 03:05:41;;;;;;;9.93;1.42;;;13.40;99.90;;;;;;5052074;28;20052;-75
2022/07/27 03:08:07;;;;;;;6.90;1.42;;;13.40;99.90;;;;;;5035807;28;20045;-75
2022/07/27 03:10:32;;;;;;;4.50;1.33;;;13.40;99.90;;;;;;5051498;28;20124;-74
2022/07/27 03:12:58;;;;;;;5.75;1.55;;;13.40;99.90;;;;;;5040772;28;20049;-74
2022/07/27 03:15:24;;;;;;;5.68;1.55;;;13.40;99.90;;;;;;5043302;28;20045;-75
2022/07/27 03:17:50;;;;;;;6.55;1.50;;;13.40;99.90;;;;;;5026401;28;20481;-75
2022/07/27 03:20:16;;;;;;;7.18;2.10;;;13.40;99.90;;;;;;5049874;28;20055;-75
2022/07/27 03:22:42;;;;;;;7.88;1.92;;;13.30;99.90;;;;;;5045721;28;20036;-75
2022/07/27 03:25:08;;;;;;;8.55;2.00;;;13.30;99.90;;;;;;5030799;28;20509;-75
2022/07/27 03:27:34;;;;;;;8.27;2.05;;;13.30;99.90;;;;;;5027694;28;20144;-75
2022/07/27 03:30:00;;;;;;;6.53;1.92;;;13.20;99.90;;;;;;5051210;28;20127;-75
2022/07/27 03:32:26;;;;;;;11.43;2.42;;;13.20;99.90;;;;;;5049221;28;20076;-75
2022/07/27 03:34:52;;;;;;;6.88;1.92;;;13.20;99.90;;;;;;5049830;28;20414;-75
2022/07/27 03:37:18;;;;;;;5.82;1.80;;;13.10;99.90;;;;;;5035185;28;20090;-74
2022/07/27 03:39:45;;;;;;;5.40;1.80;;;13.10;99.90;;;;;;5049821;28;20123;-74
2022/07/27 03:42:11;;;;;;;4.80;1.70;;;13.10;99.90;;;;;;5046391;28;20400;-74
2022/07/27 03:44:37;;;;;;;8.63;2.20;;;13.10;99.90;;;;;;5034958;28;20033;-75
2022/07/27 03:47:03;;;;;;;7.50;2.05;;;13.10;99.90;;;;;;5035883;28;20982;-75
2022/07/27 03:49:29;;;;;;;9.95;1.90;;;13.10;99.90;;;;;;5032875;28;20080;-74
2022/07/27 03:51:54;;;;;;;5.47;1.80;;;13.10;99.90;;;;;;5030918;28;20041;-75
2022/07/27 03:54:20;;;;;;;9.65;1.73;;;13.10;99.90;;;;;;5029553;28;20044;-74
2022/07/27 03:56:46;;;;;;;8.70;2.38;;;13.00;99.90;;;;;;5034132;28;20048;-75
2022/07/27 03:59:11;;;;;;;7.55;2.13;;;13.10;99.90;;;;;;5032545;28;20492;-74
2022/07/27 04:01:37;;;;;;;9.13;2.25;;;13.00;99.90;;;;;;5030988;28;20404;-75
2022/07/27 04:04:03;;;;;;;6.82;1.90;;;13.00;99.90;;;;;;5041896;28;20157;-75
2022/07/27 04:06:29;;;;;;;9.57;1.63;;;13.00;99.90;;;;;;5029413;28;20053;-75
2022/07/27 04:08:54;;;;;;;5.82;2.33;;;13.10;99.90;;;;;;5045244;28;20068;-74
2022/07/27 04:11:20;;;;;;;7.57;2.03;;;13.10;99.90;;;;;;5047025;28;20106;-75
2022/07/27 04:13:49;;;;;;;3.42;1.80;;;13.00;99.90;;;;;;5036428;28;20499;-75
2022/07/27 04:16:15;;;;;;;8.10;2.15;;;13.00;99.90;;;;;;5029656;28;20060;-74
2022/07/27 04:18:41;;;;;;;6.97;2.10;;;13.00;99.90;;;;;;5032879;28;20046;-75
2022/07/27 04:21:06;;;;;;;9.25;2.33;;;13.00;99.90;;;;;;5030071;28;20053;-74
2022/07/27 04:23:32;;;;;;;6.07;2.13;;;13.00;99.90;;;;;;5039768;28;20048;-74
2022/07/27 04:25:58;;;;;;;9.75;2.42;;;13.00;99.90;;;;;;5043015;28;20037;-75
2022/07/27 04:28:24;;;;;;;6.75;2.25;;;13.00;99.90;;;;;;5028162;28;20515;-75
2022/07/27 04:30:50;;;;;;;7.97;2.45;;;12.90;99.90;;;;;;5030437;28;20042;-75
2022/07/27 04:33:16;;;;;;;6.45;2.30;;;12.90;99.90;;;;;;5029402;28;20041;-76
2022/07/27 04:35:41;;;;;;;10.18;2.50;;;12.90;99.90;;;;;;5042213;28;20406;-75
2022/07/27 04:38:07;;;;;;;7.65;2.15;;;12.90;99.90;;;;;;5032407;28;20163;-74
2022/07/27 04:40:34;;;;;;;11.32;2.80;;;12.90;99.90;;;;;;5050084;28;20056;-75
2022/07/27 04:43:01;;;;;;;7.90;2.30;;;12.80;99.90;;;;;;5044059;28;20064;-76
2022/07/27 04:45:27;;;;;;;9.90;2.30;;;12.90;99.90;;;;;;5040148;28;20522;-75
2022/07/27 04:47:53;;;;;;;9.05;2.45;;;12.80;99.90;;;;;;5015613;28;20469;-75
2022/07/27 04:50:19;;;;;;;8.38;2.30;;;13.00;99.90;;;;;;5040552;28;20135;-74
2022/07/27 04:52:44;;;;;;;7.90;2.15;;;13.00;99.90;;;;;;5029751;28;20048;-73
2022/07/27 04:55:10;;;;;;;7.80;1.88;;;13.00;99.90;;;;;;5040004;28;20044;-75
2022/07/27 04:57:36;;;;;;;8.65;1.95;;;13.00;99.90;;;;;;5015880;28;20046;-74
2022/07/27 05:00:04;;;;;;;8.55;1.98;;;13.00;99.90;;;;;;5039680;28;20056;-74
2022/07/27 05:02:30;;;;;;;11.90;2.00;;;13.10;99.90;;;;;;5043800;28;20055;-74
2022/07/27 05:04:58;;;;;;;7.10;1.48;;;13.10;99.90;;;;;;5041668;28;20037;-75
2022/07/27 05:07:23;;;;;;;8.18;1.88;;;13.20;99.90;;;;;;5033259;28;20114;-73
2022/07/27 05:09:49;;;;;;;10.02;2.00;;;13.30;99.90;;;;;;5049777;28;20045;-75
2022/07/27 05:12:15;;;;;;;8.10;1.83;;;13.20;99.90;;;;;;5041292;28;20140;-75
2022/07/27 05:14:41;;;;;;;7.20;1.90;;;13.20;99.90;;;;;;5027713;28;20048;-75
2022/07/27 05:17:06;;;;;;;8.23;1.98;;;13.30;99.90;;;;;;5014857;28;20053;-75
2022/07/27 05:19:32;;;;;;;7.82;1.42;;;13.30;99.90;;;;;;5057533;28;20048;-75
2022/07/27 05:21:59;;;;;;;8.75;1.60;;;13.40;99.90;;;;;;5027059;28;20471;-77
2022/07/27 05:24:25;;;;;;;5.50;1.40;;;13.40;99.90;;;;;;5031715;28;20515;-75
2022/07/27 05:26:51;;;;;;;6.35;1.23;;;13.40;99.90;;;;;;5019336;28;20053;-75
2022/07/27 05:29:17;;;;;;;5.85;1.52;;;13.40;99.90;;;;;;5048270;28;20095;-75
2022/07/27 05:31:43;;;;;;;4.70;1.40;;;13.50;99.90;;;;;;5049974;28;20881;-75
2022/07/27 05:34:08;;;;;;;12.60;1.55;;;13.50;99.90;;;;;;5047333;28;20515;-76
2022/07/27 05:36:34;;;;;;;8.20;1.23;;;13.50;99.90;;;;;;5016758;28;20037;-75
2022/07/27 05:39:00;;;;;;;7.90;1.70;;;13.60;99.90;;;;;;5039386;28;20068;-75
2022/07/27 05:41:26;;;;;;;10.13;1.75;;;13.60;99.90;;;;;;5048119;28;20041;-75
2022/07/27 05:43:53;;;;;;;6.88;1.55;;;13.70;99.90;;;;;;5035225;28;20037;-75
2022/07/27 05:46:19;;;;;;;6.32;1.40;;;13.90;99.90;;;;;;5035457;28;20407;-75
2022/07/27 05:48:45;;;;;;;7.32;1.42;;;13.80;99.90;;;;;;5044671;28;20072;-75
2022/07/27 05:51:10;;;;;;;6.63;1.45;;;13.80;99.90;;;;;;5032644;28;20449;-75
2022/07/27 05:53:36;;;;;;;6.43;1.33;;;13.90;99.90;;;;;;5032260;28;20084;-75
2022/07/27 05:56:02;;;;;;;10.93;1.80;;;13.90;99.90;;;;;;5036517;28;20126;-75
2022/07/27 05:58:28;;;;;;;5.43;1.17;;;14.00;99.90;;;;;;5024376;28;20489;-76
2022/07/27 06:00:57;;;;;;;8.40;1.60;;;14.00;99.90;;;;;;5036537;28;20052;-75
2022/07/27 06:03:23;;;;;;;9.00;1.77;;;14.00;99.90;;;;;;5040432;28;20041;-75
2022/07/27 06:05:49;;;;;;;6.15;1.50;;;14.00;99.90;;;;;;5033134;28;20049;-75
2022/07/27 06:08:15;;;;;;;5.88;1.80;;;14.00;99.90;;;;;;5029577;28;20053;-75
2022/07/27 06:10:40;;;;;;;4.28;1.30;;;14.10;99.90;;;;;;5051688;28;20388;-75
2022/07/27 06:13:09;;;;;;;7.68;1.65;;;14.30;99.90;;;;;;5037229;28;20530;-75
2022/07/27 06:15:36;;;;;;;7.38;1.52;;;14.40;99.90;;;;;;5040430;28;20531;-75
2022/07/27 06:18:02;;;;;;;7.10;1.48;;;14.60;99.90;;;;;;5028623;28;20045;-75
2022/07/27 06:20:29;;;;;;;7.20;1.80;;;14.80;99.90;;;;;;5051958;28;20057;-76
2022/07/27 06:23:02;;;;;;;6.80;1.33;;;15.00;99.90;;;;;;5047005;28;20095;-76
2022/07/27 06:25:32;;;;;;;8.13;1.50;;;15.20;99.90;;;;;;5032964;28;20065;-76
2022/07/27 06:27:57;;;;;;;6.05;1.42;;;15.40;99.90;;;;;;5026842;28;20036;-76
2022/07/27 06:30:23;;;;;;;6.22;1.38;;;15.50;99.90;;;;;;5040925;28;20053;-76
2022/07/27 06:32:49;;;;;;;4.45;1.20;;;15.60;99.90;;;;;;5050353;28;20083;-76
2022/07/27 06:35:15;;;;;;;5.50;1.48;;;15.50;99.90;;;;;;5052316;28;20047;-76
2022/07/27 06:37:47;;;;;;;5.18;1.10;;;15.50;99.90;;;;;;5019682;28;20144;-76
2022/07/27 06:40:13;;;;;;;6.18;1.20;;;15.60;99.90;;;;;;5025231;28;20504;-76
2022/07/27 06:42:42;;;;;;;4.43;1.00;;;15.70;99.90;;;;;;5047374;28;20100;-77
2022/07/27 06:45:09;;;;;;;4.72;0.93;;;16.20;99.90;;;;;;5040518;28;20049;-77
2022/07/27 06:47:36;;;;;;;5.05;1.27;;;16.40;99.90;;;;;;5034689;28;20417;-77
2022/07/27 06:50:02;;;;;;;9.90;1.20;;;16.30;99.90;;;;;;5052191;28;20140;-76
2022/07/27 06:52:28;;;;;;;7.47;1.40;;;16.20;99.90;;;;;;5049623;28;20041;-77
2022/07/27 06:54:53;;;;;;;7.18;1.25;;;16.30;99.90;;;;;;5040436;28;20053;-77
2022/07/27 06:57:19;;;;;;;5.00;1.33;;;16.50;99.90;;;;;;5034526;28;20048;-76
2022/07/27 06:59:44;;;;;;;5.65;1.08;;;16.40;99.90;;;;;;5024923;28;20049;-77
2022/07/27 07:02:10;;;;;;;6.10;1.08;;;16.30;99.90;;;;;;5030500;28;20046;-76
2022/07/27 07:04:36;;;;;;;7.25;1.05;;;16.50;99.90;;;;;;5042032;28;20049;-77
2022/07/27 07:07:02;;;;;;;7.15;0.98;;;16.70;99.90;;;;;;5032110;28;20049;-76
2022/07/27 07:09:28;;;;;;;9.88;1.30;;;16.50;99.90;;;;;;5042091;28;20045;-76
2022/07/27 07:11:54;;;;;;;9.43;1.35;;;16.40;99.90;;;;;;5037160;28;20092;-76
2022/07/27 07:14:21;;;;;;;8.10;1.13;;;16.30;99.90;;;;;;5030662;28;20558;-77
2022/07/27 07:16:47;;;;;;;6.35;1.15;;;16.20;99.90;;;;;;5025508;28;20049;-77
2022/07/27 07:19:13;;;;;;;7.00;1.02;;;16.20;99.90;;;;;;5038310;28;20128;-76
2022/07/27 07:21:39;;;;;;;4.63;0.85;;;16.20;99.90;;;;;;5036327;28;20136;-77
2022/07/27 07:24:05;;;;;;;8.63;1.65;;;16.20;99.90;;;;;;5029146;28;20052;-78
2022/07/27 07:26:31;;;;;;;9.02;1.38;;;16.20;99.90;;;;;;5026006;28;20062;-75
2022/07/27 07:28:57;;;;;;;5.35;1.20;;;15.80;99.90;;;;;;5047659;28;20045;-76
2022/07/27 07:31:23;;;;;;;5.68;1.10;;;15.60;99.90;;;;;;5051382;28;20753;-77
2022/07/27 07:33:49;;;;;;;8.02;1.60;;;15.40;99.90;;;;;;5049421;28;20159;-75
2022/07/27 07:36:14;;;;;;;8.20;1.55;;;15.00;99.90;;;;;;5040375;28;20127;-78
2022/07/27 07:38:41;;;;;;;10.20;1.55;;;14.80;99.90;;;;;;5043700;28;20083;-76
2022/07/27 07:41:07;;;;;;;5.18;1.25;;;14.60;99.90;;;;;;5050008;28;20133;-75
2022/07/27 07:43:35;;;;;;;6.85;1.38;;;14.40;99.90;;;;;;5050154;28;20561;-74
2022/07/27 07:46:01;;;;;;;7.03;1.33;;;14.40;99.90;;;;;;5050946;28;20049;-74
2022/07/27 07:48:27;;;;;;;5.47;1.40;;;14.40;99.90;;;;;;5034855;28;20041;-74
2022/07/27 07:50:53;;;;;;;11.65;1.58;;;14.30;99.90;;;;;;5047771;28;20056;-75
2022/07/27 07:53:20;;;;;;;4.85;1.30;;;14.40;99.90;;;;;;5028761;28;20099;-75
2022/07/27 07:55:45;;;;;;;4.95;1.35;;;14.40;99.90;;;;;;5029535;28;20556;-75
2022/07/27 07:58:11;;;;;;;8.18;1.20;;;14.50;99.90;;;;;;5022376;28;20175;-75
2022/07/27 08:00:37;;;;;;;3.72;0.90;;;14.50;99.90;;;;;;5046773;28;20038;-76
2022/07/27 08:03:02;;;;;;;10.77;1.52;;;14.60;99.90;;;;;;5036408;28;20041;-75
2022/07/27 08:05:31;;;;;;;4.88;1.13;;;14.60;99.90;;;;;;5049736;28;20057;-75
2022/07/27 08:07:57;;;;;;;5.15;1.00;;;14.70;99.90;;;;;;5033274;28;20040;-76
2022/07/27 08:10:23;;;;;;;5.30;1.00;;;14.90;99.90;;;;;;5048960;28;20044;-75
2022/07/27 08:12:53;;;;;;;8.40;1.00;;;15.00;99.90;;;;;;5046409;28;20050;-75
2022/07/27 08:15:20;;;;;;;4.60;0.90;;;15.10;99.90;;;;;;5049775;28;20133;-75
2022/07/27 08:17:46;;;;;;;3.92;0.85;;;15.20;99.90;;;;;;5013331;28;20049;-76
2022/07/27 08:20:16;;;;;;;3.13;0.85;;;15.30;99.90;;;;;;5030702;28;20044;-75
2022/07/27 08:22:43;;;;;;;4.82;0.90;;;15.50;99.90;;;;;;5040159;28;20056;-75
2022/07/27 08:25:10;;;;;;;6.25;0.90;;;15.60;99.90;;;;;;5030078;28;20100;-75
2022/07/27 08:27:36;;;;;;;4.90;0.90;;;15.60;99.90;;;;;;5026184;28;20043;-75
2022/07/27 08:30:02;;;;;;;2.88;0.60;;;15.70;99.90;;;;;;5049927;28;20049;-75
2022/07/27 08:32:28;;;;;;;4.45;0.90;;;15.80;99.90;;;;;;5049349;28;20052;-75
2022/07/27 08:34:54;;;;;;;5.07;0.82;;;16.00;99.90;;;;;;5050480;28;20059;-76
2022/07/27 08:37:20;;;;;;;3.17;0.80;;;16.10;99.90;;;;;;5034696;28;20055;-76
2022/07/27 08:39:46;;;;;;;2.80;0.80;;;16.10;99.90;;;;;;5050352;28;20045;-76
2022/07/27 08:42:11;;;;;;;3.88;0.82;;;16.30;99.90;;;;;;5035909;28;20477;-75
2022/07/27 08:44:41;;;;;;;5.63;1.10;;;16.50;99.90;;;;;;5049865;28;20072;-76
2022/07/27 08:47:12;;;;;;;3.78;0.90;;;16.80;99.90;;;;;;5005543;28;20045;-75
2022/07/27 08:49:40;;;;;;;;;;;16.80;99.90;;;;;;5048759;28;20052;-76
2022/07/27 08:52:11;;;;;;;4.15;0.90;;;16.90;99.90;;;;;;5049599;28;19924;-75
2022/07/27 08:54:40;;;;;;;5.13;0.70;;;17.00;99.90;;;;;;5048472;28;20488;-76
2022/07/27 08:57:10;;;;;;;2.65;0.50;;;17.20;99.90;;;;;;5032656;28;20045;-77
2022/07/27 08:59:36;;;;;;;5.90;0.77;;;17.30;99.90;;;;;;5049362;28;20491;-76
2022/07/27 09:02:03;;;;;;;2.85;0.88;;;17.30;99.90;;;;;;5035769;28;20054;-76
2022/07/27 09:04:31;;;;;;;3.05;0.70;;;17.50;99.90;;;;;;5038514;28;20713;-76
2022/07/27 09:06:56;;;;;;;4.65;0.90;;;17.50;99.90;;;;;;4998563;28;20098;-76
2022/07/27 09:09:22;;;;;;;3.65;0.70;;;17.50;99.90;;;;;;5031170;28;20128;-76
2022/07/27 09:12:06;;;;;;;2.78;0.70;;;17.70;99.90;;;;;;5039845;28;20399;-77
2022/07/27 09:14:34;;;;;;;2.08;0.50;;;17.80;99.90;;;;;;5049952;28;20487;-76
2022/07/27 09:17:23;;;;;;;3.22;0.82;;;17.80;99.90;;;;;;5031133;28;20050;-77
2022/07/27 09:20:02;;;;;;;4.72;0.80;;;17.90;99.90;;;;;;5029699;28;20093;-76
2022/07/27 09:22:43;;;;;;;4.35;0.68;;;17.90;99.90;;;;;;5044610;28;20069;-77
2022/07/27 09:25:12;;;;;;;3.75;0.70;;;17.90;99.90;;;;;;5037374;28;20057;-77
2022/07/27 09:27:38;;;;;;;2.47;0.60;;;18.00;99.90;;;;;;5028949;28;20037;-75
2022/07/27 09:30:09;;;;;;;3.85;0.75;;;18.00;99.90;;;;;;5052049;28;20132;-76
2022/07/27 09:32:36;;;;;;;;;;;18.00;99.90;;;;;;5022204;28;20053;-76
2022/07/27 09:35:17;;;;;;;3.97;0.70;;;18.00;99.90;;;;;;5045380;28;19921;-76
2022/07/27 09:37:43;;;;;;;2.58;0.38;;;18.20;99.90;;;;;;5013545;28;20516;-75
2022/07/27 09:40:19;;;;;;;2.42;0.70;;;18.20;99.90;;;;;;5032077;28;20487;-76
2022/07/27 09:42:46;;;;;;;4.80;0.68;;;18.00;99.90;;;;;;5044727;28;20441;-76
2022/07/27 09:45:33;;;;;;;4.75;0.68;;;18.00;99.90;;;;;;5040389;28;20067;-76
2022/07/27 09:48:16;;;;;;;4.18;0.68;;;18.10;99.90;;;;;;5001009;28;20042;-76
2022/07/27 09:50:59;;;;;;;5.35;0.70;;;18.10;99.90;;;;;;5045783;28;20080;-76
2022/07/27 09:53:27;;;;;;;8.45;0.77;;;18.10;99.90;;;;;;5050753;28;20037;-76
2022/07/27 09:56:02;;;;;;;5.15;0.47;;;18.20;99.90;;;;;;5048626;28;20045;-75
2022/07/27 09:58:42;;;;;;;3.67;0.88;;;18.20;99.90;;;;;;5027134;28;20075;-76
2022/07/27 10:01:20;;;;;;;3.97;0.70;;;18.40;99.90;;;;;;5031521;28;20049;-77
2022/07/27 10:03:47;;;;;;;3.03;0.50;;;18.20;99.90;;;;;;5044753;28;20106;-77
2022/07/27 10:06:13;;;;;;;4.85;1.00;;;18.10;99.90;;;;;;5042596;28;20044;-76
2022/07/27 10:08:43;;;;;;;4.90;0.73;;;18.10;99.90;;;;;;5044853;28;20623;-76
2022/07/27 10:11:09;;;;;;;4.05;0.63;;;17.90;99.90;;;;;;5049290;28;20494;-77
2022/07/27 10:13:35;;;;;;;4.65;0.75;;;17.90;99.90;;;;;;5030865;28;20064;-76
2022/07/27 10:16:03;;;;;;;3.35;0.50;;;17.80;99.90;;;;;;5041767;28;20110;-76
2022/07/27 10:18:46;;;;;;;2.35;0.40;;;17.90;99.90;;;;;;5015605;28;20072;-75
2022/07/27 10:21:12;;;;;;;4.05;0.57;;;18.10;99.90;;;;;;5052399;28;20139;-76
2022/07/27 10:23:38;;;;;;;5.10;0.47;;;18.20;99.90;;;;;;5036153;28;20133;-76
2022/07/27 10:26:21;;;;;;;5.35;0.70;;;18.10;99.90;;;;;;5014846;28;20185;-75
2022/07/27 10:28:51;;;;;;;3.22;0.68;;;18.10;99.90;;;;;;5028610;28;20045;-75
2022/07/27 10:31:29;;;;;;;3.45;0.70;;;18.30;99.90;;;;;;5030897;28;20440;-75
2022/07/27 10:33:56;;;;;;;4.32;0.60;;;18.50;99.90;;;;;;5042410;28;20052;-76
2022/07/27 10:36:22;;;;;;;2.72;0.60;;;18.50;99.90;;;;;;5021744;28;20401;-77
2022/07/27 10:38:57;;;;;;;4.75;0.40;;;18.40;99.90;;;;;;5027895;28;20057;-76
2022/07/27 10:41:38;;;;;;;1.20;0.30;;;18.40;99.90;;;;;;5032099;28;20084;-76
2022/07/27 10:44:13;;;;;;;2.23;0.40;;;18.40;99.90;;;;;;5045911;28;20488;-76
2022/07/27 10:46:44;;;;;;;2.22;0.30;;;18.40;99.90;;;;;;5025852;28;20076;-76
2022/07/27 10:49:21;;;;;;;4.78;0.73;;;18.30;99.90;;;;;;5051249;28;20523;-77
2022/07/27 10:51:47;;;;;;;2.80;0.40;;;18.30;99.90;;;;;;5051078;28;20171;-76
2022/07/27 10:54:25;;;;;;;2.35;0.50;;;18.50;99.90;;;;;;5034749;28;20121;-77
2022/07/27 10:56:54;;;;;;;2.30;0.50;;;18.60;99.90;;;;;;5016765;28;20053;-76
2022/07/27 10:59:38;;;;;;;2.63;0.40;;;18.50;99.90;;;;;;5035125;28;20119;-76
2022/07/27 11:02:13;;;;;;;3.85;0.60;;;18.40;99.90;;;;;;5051534;28;20064;-76
2022/07/27 11:04:47;;;;;;;4.15;0.50;;;18.40;99.90;;;;;;5040131;28;20876;-76
2022/07/27 11:07:17;;;;;;;2.90;0.57;;;18.40;99.90;;;;;;5034445;28;20067;-76
2022/07/27 11:09:43;;;;;;;3.83;0.43;;;18.40;99.90;;;;;;5050168;28;20041;-78
2022/07/27 11:12:11;;;;;;;1.63;0.32;;;18.50;99.90;;;;;;5043012;28;20102;-76
2022/07/27 11:14:48;;;;;;;4.05;0.60;;;18.50;99.90;;;;;;5037546;28;20442;-76
2022/07/27 11:17:19;;;;;;;4.35;0.40;;;18.50;99.90;;;;;;5034510;28;20563;-75
2022/07/27 11:19:53;;;;;;;2.55;0.52;;;18.50;99.90;;;;;;5037755;28;20064;-76
2022/07/27 11:22:39;;;;;;;2.28;0.30;;;18.40;99.90;;;;;;5048074;28;20044;-76
2022/07/27 11:25:06;;;;;;;5.80;0.40;;;18.40;99.90;;;;;;5043811;28;20042;-76
2022/07/27 11:27:44;;;;;;;4.20;0.70;;;18.30;99.90;;;;;;5025539;28;20051;-76
2022/07/27 11:30:30;;;;;;;3.10;0.70;;;18.30;99.90;;;;;;5036233;28;20110;-76
2022/07/27 11:32:56;;;;;;;2.15;0.50;;;18.30;99.90;;;;;;5050321;28;20040;-76
2022/07/27 11:35:23;;;;;;;2.05;0.40;;;18.40;99.90;;;;;;5051167;28;20127;-75
2022/07/27 11:38:05;;;;;;;1.83;0.40;;;18.40;99.90;;;;;;5035840;28;20072;-75
2022/07/27 11:41:03;;;;;;;3.47;0.30;;;18.40;99.90;;;;;;5049889;28;20453;-76
2022/07/27 11:43:39;;;;;;;3.15;0.40;;;18.50;99.90;;;;;;5028395;28;20050;-75
2022/07/27 11:46:11;;;;;;;1.85;0.40;;;18.50;99.90;;;;;;5047588;28;20318;-76
2022/07/27 11:48:37;;;;;;;4.35;0.30;;;18.50;99.90;;;;;;5042546;28;20550;-76
2022/07/27 11:51:03;;;;;;;3.83;0.65;;;18.50;99.90;;;;;;5050865;28;20044;-75
2022/07/27 11:53:29;;;;;;;5.57;0.70;;;18.60;99.90;;;;;;5050017;28;20044;-76
2022/07/27 11:55:55;;;;;;;2.60;0.50;;;18.60;99.90;;;;;;5047282;28;20067;-76
2022/07/27 11:58:21;;;;;;;1.70;0.40;;;18.90;99.90;;;;;;5025845;28;20060;-76
2022/07/27 12:00:46;;;;;;;3.42;0.65;;;19.00;99.90;;;;;;5050375;28;20561;-75
2022/07/27 12:03:19;;;;;;;6.43;0.80;;;19.30;99.90;;;;;;5039723;28;20115;-76
2022/07/27 12:05:57;;;;;;;3.67;0.75;;;18.90;99.90;;;;;;5044383;28;20083;-76
2022/07/27 12:08:23;;;;;;;3.85;0.60;;;18.70;99.90;;;;;;5028180;28;20045;-76
2022/07/27 12:10:58;;;;;;;4.15;0.70;;;18.60;99.90;;;;;;5046731;28;20048;-76
2022/07/27 12:13:32;;;;;;;3.47;0.50;;;18.60;99.90;;;;;;5018710;28;20118;-76
2022/07/27 12:15:57;;;;;;;4.35;0.70;;;18.70;99.90;;;;;;5043764;28;20049;-76
2022/07/27 12:18:23;;;;;;;5.75;0.80;;;18.70;99.90;;;;;;5018302;28;20239;-75
2022/07/27 12:20:50;;;;;;;4.22;0.70;;;18.60;99.90;;;;;;5049234;28;20044;-76
2022/07/27 12:23:17;;;;;;;2.67;0.60;;;18.50;99.90;;;;;;5034513;28;20054;-76
2022/07/27 12:25:43;;;;;;;3.33;0.80;;;18.70;99.90;;;;;;5030567;28;20044;-75
2022/07/27 12:28:16;;;;;;;6.07;0.70;;;18.60;99.90;;;;;;5029528;28;20088;-76
2022/07/27 12:30:50;;;;;;;3.25;0.40;;;18.70;99.90;;;;;;5021149;28;20049;-75
2022/07/27 12:33:36;;;;;;;4.47;0.50;;;18.80;99.90;;;;;;5041304;28;20504;-75
2022/07/27 12:36:05;;;;;;;4.53;0.93;;;18.80;99.90;;;;;;5025809;28;20088;-75
2022/07/27 12:38:43;;;;;;;2.17;0.30;;;18.70;99.90;;;;;;5019091;28;20526;-76
2022/07/27 12:41:09;;;;;;;3.67;0.73;;;18.70;99.90;;;;;;5028434;28;20829;-76
2022/07/27 12:43:35;;;;;;;1.65;0.52;;;18.60;99.90;;;;;;5039540;28;20090;-75
2022/07/27 12:46:10;;;;;;;1.77;0.47;;;18.50;99.90;;;;;;5045581;28;20052;-76
2022/07/27 12:48:40;;;;;;;3.70;0.60;;;18.50;99.90;;;;;;5040078;28;20072;-77
2022/07/27 12:51:08;;;;;;;3.60;0.60;;;18.40;99.90;;;;;;5042412;28;20244;-76
2022/07/27 12:53:35;;;;;;;1.83;0.40;;;18.50;99.90;;;;;;5039518;28;20291;-77
2022/07/27 12:56:06;;;;;;;4.38;0.68;;;18.60;99.90;;;;;;5049643;28;20064;-75